sensor_id;sensor_type;location;lat;lon;timestamp;P1;durP1;ratioP1;P2;durP2;ratioP2
74044;SDS011;62389;51.412;5.436;2022-09-01T00:01:44;3.08;;;1.10;;
74044;SDS011;62389;51.412;5.436;2022-09-01T00:04:13;3.13;;;1.00;;
74044;SDS011;62389;51.412;5.436;2022-09-01T00:06:43;3.95;;;1.20;;
74044;SDS011;62389;51.412;5.436;2022-09-01T00:09:09;3.17;;;1.30;;
74044;SDS011;62389;51.412;5.436;2022-09-01T00:11:37;3.35;;;1.10;;
74044;SDS011;62389;51.412;5.436;2022-09-01T00:16:31;3.08;;;1.20;;
74044;SDS011;62389;51.412;5.436;2022-09-01T00:18:57;3.38;;;0.98;;
74044;SDS011;62389;51.412;5.436;2022-09-01T00:21:23;3.20;;;1.20;;
74044;SDS011;62389;51.412;5.436;2022-09-01T00:23:53;2.70;;;1.10;;
74044;SDS011;62389;51.412;5.436;2022-09-01T00:26:18;3.58;;;1.10;;
74044;SDS011;62389;51.412;5.436;2022-09-01T00:28:43;2.38;;;1.10;;
74044;SDS011;62389;51.412;5.436;2022-09-01T00:31:09;9.20;;;1.50;;
74044;SDS011;62389;51.412;5.436;2022-09-01T00:33:35;3.00;;;1.30;;
74044;SDS011;62389;51.412;5.436;2022-09-01T00:36:02;3.72;;;1.02;;
74044;SDS011;62389;51.412;5.436;2022-09-01T00:38:29;3.55;;;0.90;;
74044;SDS011;62389;51.412;5.436;2022-09-01T00:40:56;3.17;;;1.35;;
74044;SDS011;62389;51.412;5.436;2022-09-01T00:43:22;3.60;;;1.10;;
74044;SDS011;62389;51.412;5.436;2022-09-01T00:46:05;2.70;;;1.25;;
74044;SDS011;62389;51.412;5.436;2022-09-01T00:48:32;3.10;;;1.10;;
74044;SDS011;62389;51.412;5.436;2022-09-01T00:50:58;5.03;;;1.30;;
74044;SDS011;62389;51.412;5.436;2022-09-01T00:55:50;4.10;;;1.10;;
74044;SDS011;62389;51.412;5.436;2022-09-01T00:58:15;1.77;;;1.02;;
74044;SDS011;62389;51.412;5.436;2022-09-01T01:00:41;10.68;;;2.35;;
74044;SDS011;62389;51.412;5.436;2022-09-01T01:03:09;2.58;;;1.23;;
74044;SDS011;62389;51.412;5.436;2022-09-01T01:05:57;2.55;;;1.40;;
74044;SDS011;62389;51.412;5.436;2022-09-01T01:08:26;2.38;;;1.20;;
74044;SDS011;62389;51.412;5.436;2022-09-01T01:10:58;1.48;;;0.93;;
74044;SDS011;62389;51.412;5.436;2022-09-01T01:13:25;1.95;;;1.00;;
74044;SDS011;62389;51.412;5.436;2022-09-01T01:15:51;2.67;;;1.10;;
74044;SDS011;62389;51.412;5.436;2022-09-01T01:18:16;4.68;;;1.02;;
74044;SDS011;62389;51.412;5.436;2022-09-01T01:20:42;5.00;;;2.00;;
74044;SDS011;62389;51.412;5.436;2022-09-01T01:23:33;3.03;;;1.17;;
74044;SDS011;62389;51.412;5.436;2022-09-01T01:26:05;2.03;;;1.00;;
74044;SDS011;62389;51.412;5.436;2022-09-01T01:28:37;4.15;;;1.35;;
74044;SDS011;62389;51.412;5.436;2022-09-01T01:33:37;1.90;;;0.90;;
74044;SDS011;62389;51.412;5.436;2022-09-01T01:36:10;3.25;;;1.10;;
74044;SDS011;62389;51.412;5.436;2022-09-01T01:38:38;3.13;;;1.17;;
74044;SDS011;62389;51.412;5.436;2022-09-01T01:41:06;1.65;;;0.90;;
74044;SDS011;62389;51.412;5.436;2022-09-01T01:43:32;3.33;;;1.08;;
74044;SDS011;62389;51.412;5.436;2022-09-01T01:45:57;2.33;;;1.10;;
74044;SDS011;62389;51.412;5.436;2022-09-01T01:48:26;2.15;;;1.10;;
74044;SDS011;62389;51.412;5.436;2022-09-01T01:50:53;1.90;;;1.02;;
74044;SDS011;62389;51.412;5.436;2022-09-01T01:53:24;2.70;;;1.15;;
74044;SDS011;62389;51.412;5.436;2022-09-01T01:55:49;2.65;;;1.10;;
74044;SDS011;62389;51.412;5.436;2022-09-01T01:58:15;2.50;;;1.30;;
74044;SDS011;62389;51.412;5.436;2022-09-01T02:00:43;2.70;;;1.02;;
74044;SDS011;62389;51.412;5.436;2022-09-01T02:03:10;3.13;;;1.10;;
74044;SDS011;62389;51.412;5.436;2022-09-01T02:05:41;4.28;;;1.25;;
74044;SDS011;62389;51.412;5.436;2022-09-01T02:08:07;1.88;;;1.00;;
74044;SDS011;62389;51.412;5.436;2022-09-01T02:10:35;2.83;;;1.00;;
74044;SDS011;62389;51.412;5.436;2022-09-01T02:13:06;1.73;;;0.90;;
74044;SDS011;62389;51.412;5.436;2022-09-01T02:15:33;4.90;;;1.20;;
74044;SDS011;62389;51.412;5.436;2022-09-01T02:18:08;3.72;;;1.30;;
74044;SDS011;62389;51.412;5.436;2022-09-01T02:20:38;2.78;;;1.10;;
74044;SDS011;62389;51.412;5.436;2022-09-01T02:23:04;3.13;;;1.10;;
74044;SDS011;62389;51.412;5.436;2022-09-01T02:25:35;2.55;;;1.30;;
74044;SDS011;62389;51.412;5.436;2022-09-01T02:28:02;4.53;;;1.17;;
74044;SDS011;62389;51.412;5.436;2022-09-01T02:30:28;3.55;;;1.10;;
74044;SDS011;62389;51.412;5.436;2022-09-01T02:32:57;2.45;;;1.00;;
74044;SDS011;62389;51.412;5.436;2022-09-01T02:35:23;2.47;;;1.30;;
74044;SDS011;62389;51.412;5.436;2022-09-01T02:37:58;5.07;;;1.20;;
74044;SDS011;62389;51.412;5.436;2022-09-01T02:40:24;1.95;;;1.20;;
74044;SDS011;62389;51.412;5.436;2022-09-01T02:42:54;6.95;;;1.30;;
74044;SDS011;62389;51.412;5.436;2022-09-01T02:45:20;2.35;;;1.10;;
74044;SDS011;62389;51.412;5.436;2022-09-01T02:47:48;2.95;;;1.13;;
74044;SDS011;62389;51.412;5.436;2022-09-01T02:52:43;2.10;;;1.15;;
74044;SDS011;62389;51.412;5.436;2022-09-01T02:55:10;3.92;;;1.10;;
74044;SDS011;62389;51.412;5.436;2022-09-01T02:57:36;2.50;;;1.23;;
74044;SDS011;62389;51.412;5.436;2022-09-01T03:00:04;2.33;;;1.20;;
74044;SDS011;62389;51.412;5.436;2022-09-01T03:02:44;2.75;;;1.17;;
74044;SDS011;62389;51.412;5.436;2022-09-01T03:05:11;2.45;;;1.23;;
74044;SDS011;62389;51.412;5.436;2022-09-01T03:07:40;11.63;;;1.40;;
74044;SDS011;62389;51.412;5.436;2022-09-01T03:10:06;2.75;;;1.33;;
74044;SDS011;62389;51.412;5.436;2022-09-01T03:12:33;2.70;;;1.38;;
74044;SDS011;62389;51.412;5.436;2022-09-01T03:14:59;2.97;;;1.05;;
74044;SDS011;62389;51.412;5.436;2022-09-01T03:17:25;4.93;;;1.20;;
74044;SDS011;62389;51.412;5.436;2022-09-01T03:19:50;5.45;;;1.38;;
74044;SDS011;62389;51.412;5.436;2022-09-01T03:22:16;3.13;;;1.40;;
74044;SDS011;62389;51.412;5.436;2022-09-01T03:24:41;2.75;;;1.30;;
74044;SDS011;62389;51.412;5.436;2022-09-01T03:27:07;3.63;;;1.25;;
74044;SDS011;62389;51.412;5.436;2022-09-01T03:29:35;2.63;;;1.42;;
74044;SDS011;62389;51.412;5.436;2022-09-01T03:32:02;2.40;;;1.55;;
74044;SDS011;62389;51.412;5.436;2022-09-01T03:34:28;2.45;;;1.33;;
74044;SDS011;62389;51.412;5.436;2022-09-01T03:36:53;4.03;;;1.30;;
74044;SDS011;62389;51.412;5.436;2022-09-01T03:39:20;2.55;;;1.48;;
74044;SDS011;62389;51.412;5.436;2022-09-01T03:41:45;3.05;;;1.05;;
74044;SDS011;62389;51.412;5.436;2022-09-01T03:44:12;3.47;;;1.33;;
74044;SDS011;62389;51.412;5.436;2022-09-01T03:46:39;3.65;;;1.38;;
74044;SDS011;62389;51.412;5.436;2022-09-01T03:49:04;3.25;;;1.60;;
74044;SDS011;62389;51.412;5.436;2022-09-01T03:51:37;3.17;;;1.40;;
74044;SDS011;62389;51.412;5.436;2022-09-01T03:54:02;2.50;;;1.33;;
74044;SDS011;62389;51.412;5.436;2022-09-01T03:56:28;5.13;;;1.38;;
74044;SDS011;62389;51.412;5.436;2022-09-01T03:58:55;2.92;;;1.52;;
74044;SDS011;62389;51.412;5.436;2022-09-01T04:01:23;3.80;;;1.50;;
74044;SDS011;62389;51.412;5.436;2022-09-01T04:03:50;3.30;;;1.30;;
74044;SDS011;62389;51.412;5.436;2022-09-01T04:06:16;2.20;;;1.20;;
74044;SDS011;62389;51.412;5.436;2022-09-01T04:08:43;2.50;;;1.35;;
74044;SDS011;62389;51.412;5.436;2022-09-01T04:11:12;2.95;;;1.30;;
74044;SDS011;62389;51.412;5.436;2022-09-01T04:13:42;2.83;;;1.33;;
74044;SDS011;62389;51.412;5.436;2022-09-01T04:16:18;4.88;;;1.30;;
74044;SDS011;62389;51.412;5.436;2022-09-01T04:19:04;2.38;;;1.13;;
74044;SDS011;62389;51.412;5.436;2022-09-01T04:21:39;4.18;;;1.45;;
74044;SDS011;62389;51.412;5.436;2022-09-01T04:24:06;2.85;;;1.30;;
74044;SDS011;62389;51.412;5.436;2022-09-01T04:26:33;1.88;;;1.15;;
74044;SDS011;62389;51.412;5.436;2022-09-01T04:28:58;3.03;;;1.48;;
74044;SDS011;62389;51.412;5.436;2022-09-01T04:31:24;5.22;;;1.80;;
74044;SDS011;62389;51.412;5.436;2022-09-01T04:33:51;4.15;;;1.55;;
74044;SDS011;62389;51.412;5.436;2022-09-01T04:38:49;2.55;;;1.55;;
74044;SDS011;62389;51.412;5.436;2022-09-01T04:41:21;2.53;;;1.40;;
74044;SDS011;62389;51.412;5.436;2022-09-01T04:43:50;2.45;;;1.30;;
74044;SDS011;62389;51.412;5.436;2022-09-01T04:46:17;3.05;;;1.38;;
74044;SDS011;62389;51.412;5.436;2022-09-01T04:48:43;4.63;;;1.52;;
74044;SDS011;62389;51.412;5.436;2022-09-01T04:51:10;3.45;;;1.50;;
74044;SDS011;62389;51.412;5.436;2022-09-01T04:53:39;2.00;;;1.30;;
74044;SDS011;62389;51.412;5.436;2022-09-01T04:56:07;3.85;;;1.48;;
74044;SDS011;62389;51.412;5.436;2022-09-01T05:00:59;5.93;;;1.80;;
74044;SDS011;62389;51.412;5.436;2022-09-01T05:03:27;3.85;;;1.80;;
74044;SDS011;62389;51.412;5.436;2022-09-01T05:05:55;3.88;;;1.70;;
74044;SDS011;62389;51.412;5.436;2022-09-01T05:08:24;6.38;;;1.58;;
74044;SDS011;62389;51.412;5.436;2022-09-01T05:10:50;4.35;;;1.52;;
74044;SDS011;62389;51.412;5.436;2022-09-01T05:13:19;2.70;;;1.70;;
74044;SDS011;62389;51.412;5.436;2022-09-01T05:15:46;4.45;;;1.80;;
74044;SDS011;62389;51.412;5.436;2022-09-01T05:18:16;5.43;;;1.90;;
74044;SDS011;62389;51.412;5.436;2022-09-01T05:20:51;3.10;;;1.85;;
74044;SDS011;62389;51.412;5.436;2022-09-01T05:23:17;4.03;;;2.03;;
74044;SDS011;62389;51.412;5.436;2022-09-01T05:25:44;3.65;;;2.00;;
74044;SDS011;62389;51.412;5.436;2022-09-01T05:28:13;4.53;;;1.80;;
74044;SDS011;62389;51.412;5.436;2022-09-01T05:30:41;2.75;;;1.83;;
74044;SDS011;62389;51.412;5.436;2022-09-01T05:33:07;4.07;;;1.90;;
74044;SDS011;62389;51.412;5.436;2022-09-01T05:35:39;3.30;;;1.70;;
74044;SDS011;62389;51.412;5.436;2022-09-01T05:38:08;6.90;;;1.80;;
74044;SDS011;62389;51.412;5.436;2022-09-01T05:40:37;3.40;;;1.85;;
74044;SDS011;62389;51.412;5.436;2022-09-01T05:43:10;5.28;;;1.45;;
74044;SDS011;62389;51.412;5.436;2022-09-01T05:45:40;4.55;;;1.90;;
74044;SDS011;62389;51.412;5.436;2022-09-01T05:48:10;3.42;;;1.60;;
74044;SDS011;62389;51.412;5.436;2022-09-01T05:50:39;5.15;;;1.80;;
74044;SDS011;62389;51.412;5.436;2022-09-01T05:53:07;5.15;;;1.77;;
74044;SDS011;62389;51.412;5.436;2022-09-01T05:55:44;11.10;;;1.90;;
74044;SDS011;62389;51.412;5.436;2022-09-01T05:58:13;10.07;;;2.42;;
74044;SDS011;62389;51.412;5.436;2022-09-01T06:00:43;4.78;;;1.80;;
74044;SDS011;62389;51.412;5.436;2022-09-01T06:03:13;4.47;;;2.15;;
74044;SDS011;62389;51.412;5.436;2022-09-01T06:05:40;5.72;;;2.00;;
74044;SDS011;62389;51.412;5.436;2022-09-01T06:08:06;4.05;;;2.03;;
74044;SDS011;62389;51.412;5.436;2022-09-01T06:10:38;5.35;;;2.10;;
74044;SDS011;62389;51.412;5.436;2022-09-01T06:13:07;4.65;;;2.20;;
74044;SDS011;62389;51.412;5.436;2022-09-01T06:15:34;4.40;;;2.35;;
74044;SDS011;62389;51.412;5.436;2022-09-01T06:18:03;7.18;;;2.78;;
74044;SDS011;62389;51.412;5.436;2022-09-01T06:20:30;5.28;;;2.47;;
74044;SDS011;62389;51.412;5.436;2022-09-01T06:22:55;5.13;;;2.67;;
74044;SDS011;62389;51.412;5.436;2022-09-01T06:25:21;6.05;;;2.85;;
74044;SDS011;62389;51.412;5.436;2022-09-01T06:27:46;7.47;;;2.95;;
74044;SDS011;62389;51.412;5.436;2022-09-01T06:30:13;8.95;;;3.42;;
74044;SDS011;62389;51.412;5.436;2022-09-01T06:32:44;9.45;;;3.38;;
74044;SDS011;62389;51.412;5.436;2022-09-01T06:35:11;8.55;;;3.50;;
74044;SDS011;62389;51.412;5.436;2022-09-01T06:37:40;8.70;;;3.92;;
74044;SDS011;62389;51.412;5.436;2022-09-01T06:40:08;12.90;;;4.25;;
74044;SDS011;62389;51.412;5.436;2022-09-01T06:42:41;16.83;;;4.97;;
74044;SDS011;62389;51.412;5.436;2022-09-01T06:45:17;8.68;;;4.78;;
74044;SDS011;62389;51.412;5.436;2022-09-01T06:47:45;11.63;;;4.55;;
74044;SDS011;62389;51.412;5.436;2022-09-01T06:50:13;12.25;;;5.00;;
74044;SDS011;62389;51.412;5.436;2022-09-01T06:52:43;11.27;;;4.22;;
74044;SDS011;62389;51.412;5.436;2022-09-01T06:55:10;11.70;;;4.60;;
74044;SDS011;62389;51.412;5.436;2022-09-01T06:57:37;12.00;;;4.38;;
74044;SDS011;62389;51.412;5.436;2022-09-01T07:00:05;12.23;;;4.43;;
74044;SDS011;62389;51.412;5.436;2022-09-01T07:02:41;9.65;;;4.40;;
74044;SDS011;62389;51.412;5.436;2022-09-01T07:05:08;9.98;;;5.45;;
74044;SDS011;62389;51.412;5.436;2022-09-01T07:07:34;9.98;;;5.00;;
74044;SDS011;62389;51.412;5.436;2022-09-01T07:10:02;10.85;;;5.10;;
74044;SDS011;62389;51.412;5.436;2022-09-01T07:12:28;13.88;;;6.80;;
74044;SDS011;62389;51.412;5.436;2022-09-01T07:14:54;12.85;;;6.03;;
74044;SDS011;62389;51.412;5.436;2022-09-01T07:17:20;18.10;;;6.45;;
74044;SDS011;62389;51.412;5.436;2022-09-01T07:19:46;12.75;;;6.05;;
74044;SDS011;62389;51.412;5.436;2022-09-01T07:22:12;12.82;;;6.10;;
74044;SDS011;62389;51.412;5.436;2022-09-01T07:24:37;14.50;;;7.00;;
74044;SDS011;62389;51.412;5.436;2022-09-01T07:27:04;10.48;;;6.05;;
74044;SDS011;62389;51.412;5.436;2022-09-01T07:29:29;13.70;;;6.22;;
74044;SDS011;62389;51.412;5.436;2022-09-01T07:31:55;14.10;;;6.18;;
74044;SDS011;62389;51.412;5.436;2022-09-01T07:34:21;14.13;;;6.72;;
74044;SDS011;62389;51.412;5.436;2022-09-01T07:36:46;13.68;;;5.43;;
74044;SDS011;62389;51.412;5.436;2022-09-01T07:39:12;9.00;;;4.55;;
74044;SDS011;62389;51.412;5.436;2022-09-01T07:41:38;9.98;;;4.13;;
74044;SDS011;62389;51.412;5.436;2022-09-01T07:44:06;10.70;;;4.88;;
74044;SDS011;62389;51.412;5.436;2022-09-01T07:46:34;8.82;;;3.70;;
74044;SDS011;62389;51.412;5.436;2022-09-01T07:49:00;10.25;;;5.28;;
74044;SDS011;62389;51.412;5.436;2022-09-01T07:51:26;9.70;;;5.50;;
74044;SDS011;62389;51.412;5.436;2022-09-01T07:53:52;9.05;;;5.47;;
74044;SDS011;62389;51.412;5.436;2022-09-01T07:56:18;14.00;;;5.50;;
74044;SDS011;62389;51.412;5.436;2022-09-01T07:58:45;10.70;;;5.47;;
74044;SDS011;62389;51.412;5.436;2022-09-01T08:01:13;11.40;;;6.15;;
74044;SDS011;62389;51.412;5.436;2022-09-01T08:03:44;11.10;;;6.60;;
74044;SDS011;62389;51.412;5.436;2022-09-01T08:06:12;12.90;;;5.90;;
74044;SDS011;62389;51.412;5.436;2022-09-01T08:08:40;12.35;;;5.32;;
74044;SDS011;62389;51.412;5.436;2022-09-01T08:11:05;11.43;;;6.22;;
74044;SDS011;62389;51.412;5.436;2022-09-01T08:13:33;11.00;;;5.38;;
74044;SDS011;62389;51.412;5.436;2022-09-01T08:16:03;10.07;;;5.35;;
74044;SDS011;62389;51.412;5.436;2022-09-01T08:18:30;11.45;;;4.75;;
74044;SDS011;62389;51.412;5.436;2022-09-01T08:20:55;11.35;;;4.53;;
74044;SDS011;62389;51.412;5.436;2022-09-01T08:23:21;6.60;;;4.10;;
74044;SDS011;62389;51.412;5.436;2022-09-01T08:25:50;6.88;;;4.38;;
74044;SDS011;62389;51.412;5.436;2022-09-01T08:28:16;9.77;;;5.10;;
74044;SDS011;62389;51.412;5.436;2022-09-01T08:30:43;11.38;;;6.13;;
74044;SDS011;62389;51.412;5.436;2022-09-01T08:33:10;15.32;;;7.00;;
74044;SDS011;62389;51.412;5.436;2022-09-01T08:35:37;16.15;;;7.35;;
74044;SDS011;62389;51.412;5.436;2022-09-01T08:38:03;11.85;;;7.30;;
74044;SDS011;62389;51.412;5.436;2022-09-01T08:40:29;17.73;;;9.05;;
74044;SDS011;62389;51.412;5.436;2022-09-01T08:43:15;22.80;;;10.23;;
74044;SDS011;62389;51.412;5.436;2022-09-01T08:48:51;29.77;;;15.20;;
74044;SDS011;62389;51.412;5.436;2022-09-01T08:54:15;34.85;;;16.50;;
74044;SDS011;62389;51.412;5.436;2022-09-01T08:56:56;30.08;;;16.95;;
74044;SDS011;62389;51.412;5.436;2022-09-01T08:59:25;26.65;;;15.40;;
74044;SDS011;62389;51.412;5.436;2022-09-01T09:07:29;26.58;;;14.32;;
74044;SDS011;62389;51.412;5.436;2022-09-01T09:10:10;27.25;;;15.02;;
74044;SDS011;62389;51.412;5.436;2022-09-01T09:12:52;25.70;;;12.65;;
74044;SDS011;62389;51.412;5.436;2022-09-01T09:15:36;20.38;;;11.88;;
74044;SDS011;62389;51.412;5.436;2022-09-01T09:18:32;21.15;;;12.13;;
74044;SDS011;62389;51.412;5.436;2022-09-01T09:21:20;23.67;;;12.70;;
74044;SDS011;62389;51.412;5.436;2022-09-01T09:23:55;23.52;;;12.55;;
74044;SDS011;62389;51.412;5.436;2022-09-01T09:26:30;19.88;;;10.63;;
74044;SDS011;62389;51.412;5.436;2022-09-01T09:28:56;17.92;;;9.70;;
74044;SDS011;62389;51.412;5.436;2022-09-01T09:31:25;18.27;;;8.38;;
74044;SDS011;62389;51.412;5.436;2022-09-01T09:33:54;12.10;;;7.15;;
74044;SDS011;62389;51.412;5.436;2022-09-01T09:36:20;15.35;;;6.30;;
74044;SDS011;62389;51.412;5.436;2022-09-01T09:39:08;13.15;;;6.43;;
74044;SDS011;62389;51.412;5.436;2022-09-01T09:41:36;19.08;;;6.45;;
74044;SDS011;62389;51.412;5.436;2022-09-01T09:44:15;12.48;;;6.45;;
74044;SDS011;62389;51.412;5.436;2022-09-01T09:46:45;15.85;;;6.45;;
74044;SDS011;62389;51.412;5.436;2022-09-01T09:51:57;8.35;;;4.43;;
74044;SDS011;62389;51.412;5.436;2022-09-01T09:54:40;8.18;;;4.38;;
74044;SDS011;62389;51.412;5.436;2022-09-01T09:57:22;10.60;;;4.95;;
74044;SDS011;62389;51.412;5.436;2022-09-01T10:02:22;13.80;;;8.05;;
74044;SDS011;62389;51.412;5.436;2022-09-01T10:04:49;12.07;;;6.53;;
74044;SDS011;62389;51.412;5.436;2022-09-01T10:07:34;11.80;;;5.50;;
74044;SDS011;62389;51.412;5.436;2022-09-01T10:10:06;13.40;;;4.78;;
74044;SDS011;62389;51.412;5.436;2022-09-01T10:12:53;9.57;;;4.68;;
74044;SDS011;62389;51.412;5.436;2022-09-01T10:15:23;9.13;;;4.75;;
74044;SDS011;62389;51.412;5.436;2022-09-01T10:17:52;8.95;;;5.20;;
74044;SDS011;62389;51.412;5.436;2022-09-01T10:20:24;10.13;;;4.75;;
74044;SDS011;62389;51.412;5.436;2022-09-01T10:22:50;10.60;;;4.22;;
74044;SDS011;62389;51.412;5.436;2022-09-01T10:25:21;8.43;;;3.25;;
74044;SDS011;62389;51.412;5.436;2022-09-01T10:27:51;8.13;;;2.90;;
74044;SDS011;62389;51.412;5.436;2022-09-01T10:30:21;8.32;;;4.55;;
74044;SDS011;62389;51.412;5.436;2022-09-01T10:37:47;7.95;;;3.90;;
74044;SDS011;62389;51.412;5.436;2022-09-01T10:42:54;9.32;;;4.03;;
74044;SDS011;62389;51.412;5.436;2022-09-01T10:45:36;9.05;;;4.85;;
74044;SDS011;62389;51.412;5.436;2022-09-01T10:50:45;8.55;;;4.13;;
74044;SDS011;62389;51.412;5.436;2022-09-01T10:56:01;13.07;;;6.13;;
74044;SDS011;62389;51.412;5.436;2022-09-01T11:04:13;7.45;;;3.88;;
74044;SDS011;62389;51.412;5.436;2022-09-01T11:06:51;6.60;;;2.38;;
74044;SDS011;62389;51.412;5.436;2022-09-01T11:09:35;4.80;;;1.90;;
74044;SDS011;62389;51.412;5.436;2022-09-01T11:14:51;7.13;;;3.80;;
74044;SDS011;62389;51.412;5.436;2022-09-01T11:17:22;9.15;;;3.90;;
74044;SDS011;62389;51.412;5.436;2022-09-01T11:22:25;12.27;;;6.18;;
74044;SDS011;62389;51.412;5.436;2022-09-01T11:36:01;7.40;;;3.28;;
74044;SDS011;62389;51.412;5.436;2022-09-01T11:38:37;7.57;;;3.30;;
74044;SDS011;62389;51.412;5.436;2022-09-01T11:41:19;4.72;;;2.67;;
74044;SDS011;62389;51.412;5.436;2022-09-01T11:43:53;4.45;;;2.13;;
74044;SDS011;62389;51.412;5.436;2022-09-01T11:46:39;3.03;;;1.50;;
74044;SDS011;62389;51.412;5.436;2022-09-01T11:49:17;4.90;;;1.70;;
74044;SDS011;62389;51.412;5.436;2022-09-01T11:51:47;4.20;;;1.42;;
74044;SDS011;62389;51.412;5.436;2022-09-01T11:54:13;3.78;;;1.48;;
74044;SDS011;62389;51.412;5.436;2022-09-01T11:56:39;4.07;;;1.50;;
74044;SDS011;62389;51.412;5.436;2022-09-01T11:59:05;5.88;;;1.83;;
74044;SDS011;62389;51.412;5.436;2022-09-01T12:01:32;3.38;;;1.23;;
74044;SDS011;62389;51.412;5.436;2022-09-01T12:04:20;4.72;;;1.73;;
74044;SDS011;62389;51.412;5.436;2022-09-01T12:06:52;8.18;;;2.40;;
74044;SDS011;62389;51.412;5.436;2022-09-01T12:09:20;5.13;;;1.63;;
74044;SDS011;62389;51.412;5.436;2022-09-01T12:11:45;4.43;;;1.10;;
74044;SDS011;62389;51.412;5.436;2022-09-01T12:14:17;3.25;;;1.00;;
74044;SDS011;62389;51.412;5.436;2022-09-01T12:16:47;3.90;;;1.10;;
74044;SDS011;62389;51.412;5.436;2022-09-01T12:19:28;5.13;;;1.77;;
74044;SDS011;62389;51.412;5.436;2022-09-01T12:22:00;5.55;;;2.45;;
74044;SDS011;62389;51.412;5.436;2022-09-01T12:24:28;6.32;;;2.92;;
74044;SDS011;62389;51.412;5.436;2022-09-01T12:26:58;4.05;;;1.90;;
74044;SDS011;62389;51.412;5.436;2022-09-01T12:29:25;5.38;;;1.58;;
74044;SDS011;62389;51.412;5.436;2022-09-01T12:31:51;3.10;;;1.45;;
74044;SDS011;62389;51.412;5.436;2022-09-01T12:39:44;2.33;;;1.20;;
74044;SDS011;62389;51.412;5.436;2022-09-01T12:44:44;3.08;;;1.52;;
74044;SDS011;62389;51.412;5.436;2022-09-01T12:50:06;4.43;;;1.55;;
74044;SDS011;62389;51.412;5.436;2022-09-01T12:52:47;4.75;;;1.77;;
74044;SDS011;62389;51.412;5.436;2022-09-01T12:55:25;3.35;;;1.52;;
74044;SDS011;62389;51.412;5.436;2022-09-01T12:58:00;3.22;;;1.15;;
74044;SDS011;62389;51.412;5.436;2022-09-01T13:00:29;3.22;;;1.20;;
74044;SDS011;62389;51.412;5.436;2022-09-01T13:07:56;2.15;;;1.20;;
74044;SDS011;62389;51.412;5.436;2022-09-01T13:10:24;3.33;;;0.80;;
74044;SDS011;62389;51.412;5.436;2022-09-01T13:12:52;2.85;;;1.00;;
74044;SDS011;62389;51.412;5.436;2022-09-01T13:15:18;5.15;;;0.93;;
74044;SDS011;62389;51.412;5.436;2022-09-01T13:17:44;8.77;;;3.95;;
74044;SDS011;62389;51.412;5.436;2022-09-01T13:20:10;8.75;;;4.53;;
74044;SDS011;62389;51.412;5.436;2022-09-01T13:22:37;8.35;;;3.30;;
74044;SDS011;62389;51.412;5.436;2022-09-01T13:25:05;7.68;;;2.95;;
74044;SDS011;62389;51.412;5.436;2022-09-01T13:27:31;7.78;;;2.90;;
74044;SDS011;62389;51.412;5.436;2022-09-01T13:29:56;4.82;;;2.70;;
74044;SDS011;62389;51.412;5.436;2022-09-01T13:32:21;3.92;;;2.03;;
74044;SDS011;62389;51.412;5.436;2022-09-01T13:34:51;5.40;;;1.40;;
74044;SDS011;62389;51.412;5.436;2022-09-01T13:37:18;5.22;;;1.40;;
74044;SDS011;62389;51.412;5.436;2022-09-01T13:42:11;2.90;;;1.13;;
74044;SDS011;62389;51.412;5.436;2022-09-01T13:47:02;5.15;;;2.88;;
74044;SDS011;62389;51.412;5.436;2022-09-01T13:49:28;8.73;;;4.18;;
74044;SDS011;62389;51.412;5.436;2022-09-01T13:51:53;12.73;;;4.88;;
74044;SDS011;62389;51.412;5.436;2022-09-01T13:54:19;8.50;;;4.18;;
74044;SDS011;62389;51.412;5.436;2022-09-01T13:56:45;8.30;;;4.13;;
74044;SDS011;62389;51.412;5.436;2022-09-01T13:59:10;10.88;;;3.65;;
74044;SDS011;62389;51.412;5.436;2022-09-01T14:01:36;7.03;;;4.35;;
74044;SDS011;62389;51.412;5.436;2022-09-01T14:04:01;7.80;;;4.18;;
74044;SDS011;62389;51.412;5.436;2022-09-01T14:06:30;8.05;;;4.22;;
74044;SDS011;62389;51.412;5.436;2022-09-01T14:08:56;8.38;;;3.92;;
74044;SDS011;62389;51.412;5.436;2022-09-01T14:11:22;9.00;;;4.55;;
74044;SDS011;62389;51.412;5.436;2022-09-01T14:13:49;9.18;;;4.72;;
74044;SDS011;62389;51.412;5.436;2022-09-01T14:16:14;10.05;;;4.70;;
74044;SDS011;62389;51.412;5.436;2022-09-01T14:18:40;11.25;;;4.55;;
74044;SDS011;62389;51.412;5.436;2022-09-01T14:21:10;7.10;;;3.75;;
74044;SDS011;62389;51.412;5.436;2022-09-01T14:23:38;10.30;;;4.40;;
74044;SDS011;62389;51.412;5.436;2022-09-01T14:26:07;4.70;;;2.38;;
74044;SDS011;62389;51.412;5.436;2022-09-01T14:28:35;3.75;;;2.00;;
74044;SDS011;62389;51.412;5.436;2022-09-01T14:31:01;6.32;;;2.22;;
74044;SDS011;62389;51.412;5.436;2022-09-01T14:33:33;6.68;;;2.53;;
74044;SDS011;62389;51.412;5.436;2022-09-01T14:35:58;7.75;;;2.67;;
74044;SDS011;62389;51.412;5.436;2022-09-01T14:38:23;5.80;;;3.00;;
74044;SDS011;62389;51.412;5.436;2022-09-01T14:40:49;6.88;;;3.30;;
74044;SDS011;62389;51.412;5.436;2022-09-01T14:43:16;6.75;;;3.38;;
74044;SDS011;62389;51.412;5.436;2022-09-01T14:45:42;8.38;;;3.45;;
74044;SDS011;62389;51.412;5.436;2022-09-01T14:48:12;7.82;;;3.15;;
74044;SDS011;62389;51.412;5.436;2022-09-01T14:50:42;7.35;;;3.00;;
74044;SDS011;62389;51.412;5.436;2022-09-01T14:53:11;6.57;;;2.30;;
74044;SDS011;62389;51.412;5.436;2022-09-01T14:55:36;6.13;;;2.50;;
74044;SDS011;62389;51.412;5.436;2022-09-01T14:58:02;4.00;;;1.90;;
74044;SDS011;62389;51.412;5.436;2022-09-01T15:00:28;3.53;;;1.70;;
74044;SDS011;62389;51.412;5.436;2022-09-01T15:02:56;6.10;;;2.60;;
74044;SDS011;62389;51.412;5.436;2022-09-01T15:07:47;5.05;;;1.67;;
74044;SDS011;62389;51.412;5.436;2022-09-01T15:10:13;3.80;;;1.90;;
74044;SDS011;62389;51.412;5.436;2022-09-01T15:12:40;5.30;;;1.75;;
74044;SDS011;62389;51.412;5.436;2022-09-01T15:15:06;2.80;;;1.33;;
74044;SDS011;62389;51.412;5.436;2022-09-01T15:17:32;4.32;;;2.22;;
74044;SDS011;62389;51.412;5.436;2022-09-01T15:19:59;5.07;;;1.80;;
74044;SDS011;62389;51.412;5.436;2022-09-01T15:22:45;4.45;;;2.28;;
74044;SDS011;62389;51.412;5.436;2022-09-01T15:25:13;6.32;;;3.03;;
74044;SDS011;62389;51.412;5.436;2022-09-01T15:27:39;9.32;;;2.75;;
74044;SDS011;62389;51.412;5.436;2022-09-01T15:30:05;8.18;;;2.90;;
74044;SDS011;62389;51.412;5.436;2022-09-01T15:32:42;7.35;;;3.05;;
74044;SDS011;62389;51.412;5.436;2022-09-01T15:35:09;6.40;;;2.80;;
74044;SDS011;62389;51.412;5.436;2022-09-01T15:40:01;6.03;;;2.70;;
74044;SDS011;62389;51.412;5.436;2022-09-01T15:42:27;14.10;;;3.17;;
74044;SDS011;62389;51.412;5.436;2022-09-01T15:44:53;6.82;;;3.65;;
74044;SDS011;62389;51.412;5.436;2022-09-01T15:47:18;5.72;;;3.03;;
74044;SDS011;62389;51.412;5.436;2022-09-01T15:49:43;7.28;;;2.95;;
74044;SDS011;62389;51.412;5.436;2022-09-01T15:52:09;5.30;;;3.08;;
74044;SDS011;62389;51.412;5.436;2022-09-01T15:54:37;6.60;;;2.88;;
74044;SDS011;62389;51.412;5.436;2022-09-01T15:57:03;7.43;;;3.20;;
74044;SDS011;62389;51.412;5.436;2022-09-01T15:59:29;6.50;;;3.25;;
74044;SDS011;62389;51.412;5.436;2022-09-01T16:01:55;6.35;;;2.97;;
74044;SDS011;62389;51.412;5.436;2022-09-01T16:06:47;6.32;;;2.70;;
74044;SDS011;62389;51.412;5.436;2022-09-01T16:09:13;5.53;;;2.90;;
74044;SDS011;62389;51.412;5.436;2022-09-01T16:11:39;5.68;;;2.88;;
74044;SDS011;62389;51.412;5.436;2022-09-01T16:14:05;5.85;;;2.85;;
74044;SDS011;62389;51.412;5.436;2022-09-01T16:24:45;7.93;;;2.70;;
74044;SDS011;62389;51.412;5.436;2022-09-01T16:27:13;5.07;;;2.60;;
74044;SDS011;62389;51.412;5.436;2022-09-01T16:29:43;5.85;;;2.50;;
74044;SDS011;62389;51.412;5.436;2022-09-01T16:32:12;8.57;;;3.08;;
74044;SDS011;62389;51.412;5.436;2022-09-01T16:34:41;6.72;;;2.30;;
74044;SDS011;62389;51.412;5.436;2022-09-01T16:37:22;5.60;;;2.85;;
74044;SDS011;62389;51.412;5.436;2022-09-01T16:48:09;5.18;;;2.60;;